createdAt,value
2016-06-05T00:00:00.320Z,949.5
2016-06-05T00:00:10.305Z,949.4
2016-06-05T00:00:20.352Z,949.5
2016-06-05T00:00:30.305Z,949.5
2016-06-05T00:00:40.305Z,949.5
2016-06-05T00:00:50.308Z,949.5
2016-06-05T00:01:00.292Z,949.5
2016-06-05T00:01:10.292Z,949.5
2016-06-05T00:01:20.292Z,949.5
2016-06-05T00:01:30.292Z,949.5
2016-06-05T00:01:40.308Z,949.5
2016-06-05T00:01:50.311Z,949.5
2016-06-05T00:02:00.280Z,949.5
2016-06-05T00:02:10.280Z,949.6
2016-06-05T00:02:20.295Z,949.5
2016-06-05T00:02:30.264Z,949.5
2016-06-05T00:02:40.280Z,949.6
2016-06-05T00:02:50.266Z,949.5
2016-06-05T00:03:00.266Z,949.5
2016-06-05T00:03:10.266Z,949.7
2016-06-05T00:03:20.250Z,949.5
2016-06-05T00:03:30.266Z,949.5
2016-06-05T00:03:40.266Z,949.6
2016-06-05T00:03:50.113Z,949.6
2016-06-05T00:04:00.253Z,949.6
2016-06-05T00:04:10.238Z,949.6
2016-06-05T00:04:20.253Z,949.7
2016-06-05T00:04:30.253Z,949.6
2016-06-05T00:04:40.253Z,949.6
2016-06-05T00:04:50.256Z,949.8
2016-06-05T00:05:00.272Z,949.6
2016-06-05T00:05:10.241Z,949.6
2016-06-05T00:05:20.225Z,949.7
2016-06-05T00:05:30.225Z,949.6
2016-06-05T00:05:40.225Z,949.7
2016-06-05T00:05:50.228Z,949.7
2016-06-05T00:06:00.228Z,949.7
2016-06-05T00:06:10.228Z,949.7
2016-06-05T00:06:20.228Z,949.7
2016-06-05T00:06:30.244Z,949.7
2016-06-05T00:06:40.212Z,949.8
2016-06-05T00:06:50.214Z,949.8
2016-06-05T00:07:00.230Z,949.8
2016-06-05T00:07:10.214Z,949.8
2016-06-05T00:07:20.199Z,949.8
2016-06-05T00:07:30.214Z,949.8
2016-06-05T00:07:40.199Z,949.8
2016-06-05T00:07:50.201Z,949.8
2016-06-05T00:08:00.201Z,949.8
2016-06-05T00:08:10.201Z,949.8
2016-06-05T00:08:20.201Z,949.8
2016-06-05T00:08:30.201Z,949.8
2016-06-05T00:08:40.201Z,949.9
2016-06-05T00:08:50.205Z,949.9
2016-06-05T00:09:00.189Z,949.8
2016-06-05T00:09:10.189Z,949.9
2016-06-05T00:09:20.189Z,949.9
2016-06-05T00:09:30.033Z,950
2016-06-05T00:09:40.220Z,949.9
2016-06-05T00:09:50.176Z,949.9
2016-06-05T00:10:00.176Z,949.9
2016-06-05T00:10:10.191Z,949.9
2016-06-05T00:10:20.176Z,950
2016-06-05T00:10:31.426Z,949.9
2016-06-05T00:10:40.176Z,949.9
2016-06-05T00:10:50.163Z,950
2016-06-05T00:11:00.163Z,950
2016-06-05T00:11:10.163Z,950
2016-06-05T00:11:20.179Z,950
2016-06-05T00:11:30.163Z,950
2016-06-05T00:11:40.147Z,950.1
2016-06-05T00:11:49.994Z,950
2016-06-05T00:12:00.150Z,949.9
2016-06-05T00:12:10.150Z,950
2016-06-05T00:12:20.135Z,950.1
2016-06-05T00:12:30.932Z,950.1
2016-06-05T00:12:40.353Z,950
2016-06-05T00:12:51.810Z,950.1
2016-06-05T00:13:00.310Z,950.1
2016-06-05T00:13:12.591Z,950
2016-06-05T00:13:21.278Z,950.2
2016-06-05T00:13:30.919Z,950.1
2016-06-05T00:13:40.966Z,950.2
2016-06-05T00:13:50.905Z,950.1
2016-06-05T00:14:00.124Z,950.1
2016-06-05T00:14:10.124Z,950.2
2016-06-05T00:14:20.108Z,950.1
2016-06-05T00:14:30.124Z,950.1
2016-06-05T00:14:40.140Z,950.2
2016-06-05T00:14:50.110Z,950.2
2016-06-05T00:14:59.970Z,950.2
2016-06-05T00:15:10.126Z,950.2
2016-06-05T00:15:20.126Z,950.3
2016-06-05T00:15:29.954Z,950.3
2016-06-05T00:15:40.110Z,950.2
2016-06-05T00:15:50.098Z,950.2
2016-06-05T00:16:00.129Z,950.2
2016-06-05T00:16:10.098Z,950.3
2016-06-05T00:16:20.098Z,950.3
2016-06-05T00:16:30.082Z,950.3
2016-06-05T00:16:39.957Z,950.3
2016-06-05T00:16:50.148Z,950.3
2016-06-05T00:17:03.991Z,950.3
2016-06-05T00:17:15.648Z,950.3
2016-06-05T00:17:27.226Z,950.4
2016-06-05T00:17:38.710Z,950.3
2016-06-05T00:17:50.323Z,950.3
2016-06-05T00:18:01.994Z,950.3
2016-06-05T00:18:08.979Z,950.4
2016-06-05T00:18:23.135Z,950.4
2016-06-05T00:18:47.497Z,950.4
2016-06-05T00:18:56.107Z,950.4
2016-06-05T00:19:08.497Z,950.4
2016-06-05T00:19:19.654Z,950.5
2016-06-05T00:19:31.404Z,950.5
2016-06-05T00:19:43.029Z,950.4
2016-06-05T00:19:54.546Z,950.4
2016-06-05T00:20:06.187Z,950.4
2016-06-05T00:20:17.781Z,950.4
2016-06-05T00:20:29.281Z,950.5
2016-06-05T00:20:40.906Z,950.5
2016-06-05T00:20:48.346Z,950.5
2016-06-05T00:20:57.549Z,950.5
2016-06-05T00:21:07.706Z,950.5
2016-06-05T00:21:17.706Z,950.5
2016-06-05T00:21:27.721Z,950.6
2016-06-05T00:21:37.581Z,950.5
2016-06-05T00:21:47.709Z,950.5
2016-06-05T00:21:57.693Z,950.5
2016-06-05T00:22:07.693Z,950.6
2016-06-05T00:22:17.709Z,950.6
2016-06-05T00:22:27.677Z,950.5
2016-06-05T00:22:37.568Z,950.5
2016-06-05T00:22:47.693Z,950.5
2016-06-05T00:22:57.539Z,950.5
2016-06-05T00:23:07.679Z,950.5
2016-06-05T00:23:17.695Z,950.6
2016-06-05T00:23:27.679Z,950.6
2016-06-05T00:23:37.507Z,950.5
2016-06-05T00:23:47.679Z,950.6
2016-06-05T00:23:57.667Z,950.6
2016-06-05T00:24:07.667Z,950.7
2016-06-05T00:24:17.682Z,950.5
2016-06-05T00:24:27.651Z,950.6
2016-06-05T00:24:37.510Z,950.7
2016-06-05T00:24:47.667Z,950.7
2016-06-05T00:24:57.654Z,950.7
2016-06-05T00:25:07.654Z,950.6
2016-06-05T00:25:17.670Z,950.7
2016-06-05T00:25:27.654Z,950.6
2016-06-05T00:25:37.498Z,950.6
2016-06-05T00:25:47.654Z,950.8
2016-06-05T00:25:57.641Z,950.7
2016-06-05T00:26:07.641Z,950.7
2016-06-05T00:26:17.626Z,950.7
2016-06-05T00:26:27.626Z,950.6
2016-06-05T00:26:37.641Z,950.7
2016-06-05T00:26:47.626Z,950.7
2016-06-05T00:26:57.690Z,950.6
2016-06-05T00:27:07.628Z,950.8
2016-06-05T00:27:17.628Z,950.7
2016-06-05T00:27:28.003Z,950.7
2016-06-05T00:27:38.456Z,950.7
2016-06-05T00:27:48.253Z,950.8
2016-06-05T00:27:57.678Z,950.8
2016-06-05T00:28:07.740Z,950.8
2016-06-05T00:28:17.662Z,950.8
2016-06-05T00:28:27.881Z,950.8
2016-06-05T00:28:37.162Z,950.8
2016-06-05T00:28:47.475Z,950.8
2016-06-05T00:28:57.602Z,950.9
2016-06-05T00:29:07.617Z,950.9
2016-06-05T00:29:17.617Z,950.8
2016-06-05T00:29:27.477Z,950.8
2016-06-05T00:29:37.586Z,950.9
2016-06-05T00:29:47.586Z,950.8
2016-06-05T00:29:57.605Z,950.8
2016-06-05T00:30:07.605Z,950.9
2016-06-05T00:30:17.589Z,950.8
2016-06-05T00:30:27.605Z,950.9
2016-06-05T00:30:37.589Z,950.8
2016-06-05T00:30:47.573Z,950.9
2016-06-05T00:30:57.592Z,950.9
2016-06-05T00:31:07.436Z,950.8
2016-06-05T00:31:17.592Z,950.9
2016-06-05T00:31:27.576Z,951
2016-06-05T00:31:37.576Z,950.9
2016-06-05T00:31:47.576Z,951
2016-06-05T00:31:57.563Z,951
2016-06-05T00:32:07.563Z,950.9
2016-06-05T00:32:17.578Z,951
2016-06-05T00:32:27.563Z,951
2016-06-05T00:32:37.563Z,951
2016-06-05T00:32:47.563Z,951
2016-06-05T00:32:57.550Z,951
2016-06-05T00:33:07.566Z,951
2016-06-05T00:33:17.566Z,951
2016-06-05T00:33:27.550Z,950.9
2016-06-05T00:33:37.550Z,951
2016-06-05T00:33:47.550Z,951
2016-06-05T00:33:57.553Z,951.1
2016-06-05T00:34:07.569Z,950.9
2016-06-05T00:34:17.522Z,951
2016-06-05T00:34:27.537Z,951
2016-06-05T00:34:37.537Z,951
2016-06-05T00:34:47.537Z,951
2016-06-05T00:34:57.524Z,951
2016-06-05T00:35:07.524Z,951.1
2016-06-05T00:35:17.539Z,951.1
2016-06-05T00:35:27.524Z,951
2016-06-05T00:35:37.368Z,951.1
2016-06-05T00:35:47.524Z,951.1
2016-06-05T00:35:57.527Z,951.1
2016-06-05T00:36:07.511Z,951
2016-06-05T00:36:17.511Z,951.1
2016-06-05T00:36:27.527Z,951
2016-06-05T00:36:37.355Z,951.1
2016-06-05T00:36:47.496Z,951.1
2016-06-05T00:36:57.514Z,951.1
2016-06-05T00:37:07.499Z,951.1
2016-06-05T00:37:17.499Z,951.1
2016-06-05T00:37:27.514Z,951.1
2016-06-05T00:37:37.499Z,951
2016-06-05T00:37:47.499Z,951.1
2016-06-05T00:37:57.502Z,951.1
2016-06-05T00:38:07.361Z,951
2016-06-05T00:38:17.502Z,951.2
2016-06-05T00:38:27.502Z,951.2
2016-06-05T00:38:37.330Z,951.1
2016-06-05T00:38:47.502Z,951.1
2016-06-05T00:38:57.488Z,951.2
2016-06-05T00:39:07.472Z,951.2
2016-06-05T00:39:17.472Z,951.2
2016-06-05T00:39:27.457Z,951.2
2016-06-05T00:39:37.488Z,951.1
2016-06-05T00:39:47.457Z,951.2
2016-06-05T00:39:57.475Z,951.1
2016-06-05T00:40:07.475Z,951.2
2016-06-05T00:40:17.475Z,951.2
2016-06-05T00:40:27.460Z,951.2
2016-06-05T00:40:37.460Z,951.2
2016-06-05T00:40:47.460Z,951.2
2016-06-05T00:40:57.463Z,951.2
2016-06-05T00:41:07.478Z,951.2
2016-06-05T00:41:17.291Z,951.2
2016-06-05T00:41:27.447Z,951.2
2016-06-05T00:41:37.447Z,951.2
2016-06-05T00:41:47.431Z,951.2
2016-06-05T00:41:57.559Z,951.2
2016-06-05T00:42:07.606Z,951.3
2016-06-05T00:42:17.450Z,951.3
2016-06-05T00:42:28.575Z,951.3
2016-06-05T00:42:37.388Z,951.2
2016-06-05T00:42:48.106Z,951.2
2016-06-05T00:42:57.374Z,951.2
2016-06-05T00:43:08.390Z,951.2
2016-06-05T00:43:17.671Z,951.3
2016-06-05T00:43:27.343Z,951.3
2016-06-05T00:43:37.686Z,951.3
2016-06-05T00:43:47.858Z,951.3
2016-06-05T00:43:57.423Z,951.3
2016-06-05T00:44:07.423Z,951.2
2016-06-05T00:44:17.423Z,951.3
2016-06-05T00:44:27.392Z,951.3
2016-06-05T00:44:37.407Z,951.3
2016-06-05T00:44:47.392Z,951.3
2016-06-05T00:44:57.411Z,951.3
2016-06-05T00:45:07.411Z,951.3
2016-06-05T00:45:17.396Z,951.3
2016-06-05T00:45:27.396Z,951.3
2016-06-05T00:45:37.396Z,951.3
2016-06-05T00:45:47.380Z,951.3
2016-06-05T00:45:57.382Z,951.2
2016-06-05T00:46:07.413Z,951.2
2016-06-05T00:46:17.382Z,951.3
2016-06-05T00:46:27.366Z,951.3
2016-06-05T00:46:37.398Z,951.3
2016-06-05T00:46:47.366Z,951.3
2016-06-05T00:46:57.368Z,951.3
2016-06-05T00:47:07.384Z,951.2
2016-06-05T00:47:17.384Z,951.2
2016-06-05T00:47:27.368Z,951.2
2016-06-05T00:47:37.353Z,951.3
2016-06-05T00:47:47.353Z,951.3
2016-06-05T00:47:57.371Z,951.3
2016-06-05T00:48:07.371Z,951.2
2016-06-05T00:48:17.356Z,951.3
2016-06-05T00:48:27.356Z,951.3
2016-06-05T00:48:37.340Z,951.3
2016-06-05T00:48:47.356Z,951.2
2016-06-05T00:48:57.374Z,951.2
2016-06-05T00:49:07.374Z,951.3
2016-06-05T00:49:17.359Z,951.3
2016-06-05T00:49:27.343Z,951.3
2016-06-05T00:49:37.343Z,951.2
2016-06-05T00:49:47.343Z,951.3
2016-06-05T00:49:57.346Z,951.2
2016-06-05T00:50:07.346Z,951.2
2016-06-05T00:50:17.330Z,951.3
2016-06-05T00:50:27.330Z,951.2
2016-06-05T00:50:37.315Z,951.3
2016-06-05T00:50:47.330Z,951.3
2016-06-05T00:50:57.318Z,951.3
2016-06-05T00:51:07.177Z,951.2
2016-06-05T00:51:17.349Z,951.2
2016-06-05T00:51:27.318Z,951.3
2016-06-05T00:51:37.318Z,951.3
2016-06-05T00:51:47.318Z,951.3
2016-06-05T00:51:57.304Z,951.2
2016-06-05T00:52:07.320Z,951.2
2016-06-05T00:52:17.320Z,951.3
2016-06-05T00:52:27.304Z,951.3
2016-06-05T00:52:37.304Z,951.2
2016-06-05T00:52:47.289Z,951.3
2016-06-05T00:52:57.307Z,951.3
2016-06-05T00:53:07.323Z,951.3
2016-06-05T00:53:17.307Z,951.2
2016-06-05T00:53:27.292Z,951.2
2016-06-05T00:53:37.323Z,951.3
2016-06-05T00:53:47.292Z,951.3
2016-06-05T00:53:57.279Z,951.2
2016-06-05T00:54:07.295Z,951.3
2016-06-05T00:54:17.279Z,951.2
2016-06-05T00:54:27.279Z,951.2
2016-06-05T00:54:37.263Z,951.3
2016-06-05T00:54:47.279Z,951.3
2016-06-05T00:54:57.297Z,951.3
2016-06-05T00:55:07.265Z,951.2
2016-06-05T00:55:17.250Z,951.3
2016-06-05T00:55:27.297Z,951.3
2016-06-05T00:55:37.250Z,951.3
2016-06-05T00:55:47.281Z,951.3
2016-06-05T00:55:57.268Z,951.3
2016-06-05T00:56:07.284Z,951.3
2016-06-05T00:56:17.253Z,951.2
2016-06-05T00:56:27.284Z,951.3
2016-06-05T00:56:37.268Z,951.2
2016-06-05T00:56:47.237Z,951.3
2016-06-05T00:56:57.099Z,951.3
2016-06-05T00:57:07.256Z,951.3
2016-06-05T00:57:17.271Z,951.3
2016-06-05T00:57:27.287Z,951.3
2016-06-05T00:57:37.099Z,951.2
2016-06-05T00:57:47.724Z,951.2
2016-06-05T00:57:57.665Z,951.2
2016-06-05T00:58:08.306Z,951.3
2016-06-05T00:58:17.837Z,951.3
2016-06-05T00:58:27.446Z,951.3
2016-06-05T00:58:37.165Z,951.2
2016-06-05T00:58:51.604Z,951.3
2016-06-05T00:59:03.558Z,951.3
2016-06-05T00:59:15.573Z,951.3
2016-06-05T00:59:22.933Z,951.3
2016-06-05T00:59:37.104Z,951.3
2016-06-05T00:59:48.714Z,951.3
2016-06-05T01:00:00.264Z,951.2
2016-06-05T01:00:11.811Z,951.2
2016-06-05T01:00:23.436Z,951.4
2016-06-05T01:00:35.186Z,951.3
2016-06-05T01:00:47.014Z,951.3
2016-06-05T01:00:58.657Z,951.3
2016-06-05T01:01:07.204Z,951.4
2016-06-05T01:01:15.439Z,951.3
2016-06-05T01:01:25.282Z,951.4
2016-06-05T01:01:35.423Z,951.3
2016-06-05T01:01:45.423Z,951.4
2016-06-05T01:01:55.441Z,951.3
2016-06-05T01:02:05.425Z,951.4
2016-06-05T01:02:15.409Z,951.3
2016-06-05T01:02:25.456Z,951.4
2016-06-05T01:02:35.409Z,951.4
2016-06-05T01:02:45.409Z,951.4
2016-06-05T01:02:55.427Z,951.3
2016-06-05T01:03:05.255Z,951.4
2016-06-05T01:03:15.396Z,951.4
2016-06-05T01:03:25.411Z,951.4
2016-06-05T01:03:35.411Z,951.4
2016-06-05T01:03:45.396Z,951.3
2016-06-05T01:03:55.400Z,951.5
2016-06-05T01:04:05.415Z,951.4
2016-06-05T01:04:15.415Z,951.5
2016-06-05T01:04:25.384Z,951.3
2016-06-05T01:04:35.384Z,951.5
2016-06-05T01:04:45.400Z,951.4
2016-06-05T01:04:55.386Z,951.4
2016-06-05T01:05:05.370Z,951.4
2016-06-05T01:05:15.386Z,951.3
2016-06-05T01:05:25.386Z,951.5
2016-06-05T01:05:35.370Z,951.5
2016-06-05T01:05:45.402Z,951.5
2016-06-05T01:05:55.358Z,951.5
2016-06-05T01:06:05.373Z,951.4
2016-06-05T01:06:15.358Z,951.4
2016-06-05T01:06:25.358Z,951.5
2016-06-05T01:06:35.389Z,951.5
2016-06-05T01:06:45.358Z,951.5
2016-06-05T01:06:55.361Z,951.5
2016-06-05T01:07:05.376Z,951.5
2016-06-05T01:07:15.361Z,951.5
2016-06-05T01:07:25.345Z,951.6
2016-06-05T01:07:35.345Z,951.6
2016-06-05T01:07:45.345Z,951.5
2016-06-05T01:07:55.347Z,951.5
2016-06-05T01:08:05.410Z,951.6
2016-06-05T01:08:15.191Z,951.5
2016-06-05T01:08:25.363Z,951.6
2016-06-05T01:08:35.332Z,951.6
2016-06-05T01:08:45.191Z,951.6
2016-06-05T01:08:55.350Z,951.5
2016-06-05T01:09:05.335Z,951.5
2016-06-05T01:09:15.319Z,951.6
2016-06-05T01:09:25.350Z,951.6
2016-06-05T01:09:35.319Z,951.6
2016-06-05T01:09:45.319Z,951.6
2016-06-05T01:09:55.322Z,951.6
2016-06-05T01:10:05.322Z,951.7
2016-06-05T01:10:15.306Z,951.7
2016-06-05T01:10:25.306Z,951.7
2016-06-05T01:10:35.306Z,951.7
2016-06-05T01:10:45.306Z,951.7
2016-06-05T01:10:55.309Z,951.8
2016-06-05T01:11:05.309Z,951.7
2016-06-05T01:11:15.309Z,951.7
2016-06-05T01:11:25.278Z,951.7
2016-06-05T01:11:35.309Z,951.8
2016-06-05T01:11:45.294Z,951.8
2016-06-05T01:11:55.296Z,951.7
2016-06-05T01:12:05.296Z,951.8
2016-06-05T01:12:15.296Z,951.8
2016-06-05T01:12:25.733Z,951.8
2016-06-05T01:12:36.780Z,951.8
2016-06-05T01:12:45.733Z,951.9
2016-06-05T01:12:56.455Z,951.8
2016-06-05T01:13:05.424Z,951.9
2016-06-05T01:13:15.346Z,951.9
2016-06-05T01:13:26.611Z,951.8
2016-06-05T01:13:35.299Z,951.9
2016-06-05T01:13:45.392Z,951.9
2016-06-05T01:13:55.269Z,951.8
2016-06-05T01:14:05.269Z,951.9
2016-06-05T01:14:15.254Z,951.9
2016-06-05T01:14:25.254Z,952
2016-06-05T01:14:35.238Z,952
2016-06-05T01:14:45.254Z,952
2016-06-05T01:14:55.257Z,952
2016-06-05T01:15:05.241Z,952
2016-06-05T01:15:15.257Z,952
2016-06-05T01:15:25.257Z,952.1
2016-06-05T01:15:35.241Z,952
2016-06-05T01:15:45.241Z,952.1
2016-06-05T01:15:55.244Z,952.1
2016-06-05T01:16:05.244Z,952.1
2016-06-05T01:16:15.229Z,952.2
2016-06-05T01:16:25.244Z,952.1
2016-06-05T01:16:35.213Z,952.2
2016-06-05T01:16:45.244Z,952.2
2016-06-05T01:16:55.215Z,952.3
2016-06-05T01:17:05.231Z,952.2
2016-06-05T01:17:15.231Z,952.2
2016-06-05T01:17:25.231Z,952.2
2016-06-05T01:17:35.215Z,952.3
2016-06-05T01:17:45.215Z,952.2
2016-06-05T01:17:55.202Z,952.3
2016-06-05T01:18:05.234Z,952.3
2016-06-05T01:18:15.202Z,952.3
2016-06-05T01:18:25.202Z,952.3
2016-06-05T01:18:35.202Z,952.3
2016-06-05T01:18:45.202Z,952.4
2016-06-05T01:18:55.221Z,952.4
2016-06-05T01:19:05.049Z,952.4
2016-06-05T01:19:15.174Z,952.4
2016-06-05T01:19:25.190Z,952.4
2016-06-05T01:19:35.049Z,952.4
2016-06-05T01:19:45.190Z,952.4
2016-06-05T01:19:55.177Z,952.5
2016-06-05T01:20:05.193Z,952.4
2016-06-05T01:20:15.193Z,952.4
2016-06-05T01:20:25.177Z,952.5
2016-06-05T01:20:35.177Z,952.5
2016-06-05T01:20:45.193Z,952.5
2016-06-05T01:20:55.180Z,952.4
2016-06-05T01:21:05.164Z,952.5
2016-06-05T01:21:15.180Z,952.5
2016-06-05T01:21:25.180Z,952.4
2016-06-05T01:21:35.164Z,952.5
2016-06-05T01:21:45.149Z,952.5
2016-06-05T01:21:55.198Z,952.5
2016-06-05T01:22:05.151Z,952.5
2016-06-05T01:22:15.166Z,952.5
2016-06-05T01:22:25.151Z,952.6
2016-06-05T01:22:35.151Z,952.6
2016-06-05T01:22:45.010Z,952.6
2016-06-05T01:22:54.998Z,952.7
2016-06-05T01:23:05.138Z,952.7
2016-06-05T01:23:15.154Z,952.6
2016-06-05T01:23:25.138Z,952.6
2016-06-05T01:23:35.138Z,952.7
2016-06-05T01:23:45.154Z,952.7
2016-06-05T01:23:55.125Z,952.7
2016-06-05T01:24:05.156Z,952.7
2016-06-05T01:24:15.125Z,952.7
2016-06-05T01:24:25.125Z,952.7
2016-06-05T01:24:35.140Z,952.6
2016-06-05T01:24:45.140Z,952.7
2016-06-05T01:24:55.112Z,952.8
2016-06-05T01:25:05.112Z,952.8
2016-06-05T01:25:15.128Z,952.6
2016-06-05T01:25:25.112Z,952.8
2016-06-05T01:25:35.128Z,952.7
2016-06-05T01:25:45.112Z,952.8
2016-06-05T01:25:55.099Z,952.7
2016-06-05T01:26:05.115Z,952.8
2016-06-05T01:26:15.115Z,952.9
2016-06-05T01:26:25.099Z,952.8
2016-06-05T01:26:35.115Z,952.8
2016-06-05T01:26:45.099Z,952.8
2016-06-05T01:26:55.086Z,952.8
2016-06-05T01:27:05.148Z,952.8
2016-06-05T01:27:14.945Z,952.9
2016-06-05T01:27:25.258Z,952.9
2016-06-05T01:27:35.992Z,952.9
2016-06-05T01:27:45.148Z,952.9
2016-06-05T01:27:54.792Z,952.8
2016-06-05T01:28:05.370Z,952.9
2016-06-05T01:28:14.807Z,952.9
2016-06-05T01:28:25.495Z,952.9
2016-06-05T01:28:35.104Z,952.9
2016-06-05T01:28:45.651Z,953
2016-06-05T01:28:55.076Z,952.9
2016-06-05T01:29:05.060Z,952.9
2016-06-05T01:29:15.076Z,953
2016-06-05T01:29:25.076Z,953
2016-06-05T01:29:35.076Z,953
2016-06-05T01:29:45.092Z,953
2016-06-05T01:29:55.062Z,953
2016-06-05T01:30:05.047Z,953
2016-06-05T01:30:15.062Z,953
2016-06-05T01:30:24.906Z,953
2016-06-05T01:30:35.047Z,953.1
2016-06-05T01:30:45.078Z,953
2016-06-05T01:30:55.066Z,953.1
2016-06-05T01:31:05.051Z,953.1
2016-06-05T01:31:15.035Z,953.1
2016-06-05T01:31:25.035Z,953.1
2016-06-05T01:31:35.051Z,953.1
2016-06-05T01:31:44.863Z,953.1
2016-06-05T01:31:55.022Z,953.1
2016-06-05T01:32:05.037Z,953.2
2016-06-05T01:32:14.865Z,953.2
2016-06-05T01:32:25.037Z,953.1
2016-06-05T01:32:35.053Z,953.1
2016-06-05T01:32:45.022Z,953.2
2016-06-05T01:32:55.039Z,953.2
2016-06-05T01:33:05.008Z,953.2
2016-06-05T01:33:15.024Z,953.2
2016-06-05T01:33:25.024Z,953.2
2016-06-05T01:33:35.008Z,953.2
2016-06-05T01:33:45.024Z,953.3
2016-06-05T01:33:55.011Z,953.2
2016-06-05T01:34:05.011Z,953.2
2016-06-05T01:34:14.995Z,953.2
2016-06-05T01:34:25.027Z,953.2
2016-06-05T01:34:34.995Z,953.3
2016-06-05T01:34:44.980Z,953.3
2016-06-05T01:34:55.014Z,953.3
2016-06-05T01:35:04.998Z,953.2
2016-06-05T01:35:14.983Z,953.3
2016-06-05T01:35:24.998Z,953.3
2016-06-05T01:35:34.983Z,953.4
2016-06-05T01:35:44.998Z,953.3
2016-06-05T01:35:54.970Z,953.3
2016-06-05T01:36:04.970Z,953.3
2016-06-05T01:36:14.970Z,953.4
2016-06-05T01:36:24.970Z,953.3
2016-06-05T01:36:34.970Z,953.5
2016-06-05T01:36:44.970Z,953.3
2016-06-05T01:36:54.801Z,953.4
2016-06-05T01:37:04.973Z,953.4
2016-06-05T01:37:14.973Z,953.3
2016-06-05T01:37:24.989Z,953.4
2016-06-05T01:37:34.942Z,953.4
2016-06-05T01:37:44.957Z,953.4
2016-06-05T01:37:54.944Z,953.4
2016-06-05T01:38:04.959Z,953.4
2016-06-05T01:38:14.944Z,953.4
2016-06-05T01:38:24.944Z,953.4
2016-06-05T01:38:34.991Z,953.5
2016-06-05T01:38:44.928Z,953.4
2016-06-05T01:38:54.930Z,953.4
2016-06-05T01:39:04.930Z,953.5
2016-06-05T01:39:14.946Z,953.5
2016-06-05T01:39:24.946Z,953.5
2016-06-05T01:39:34.915Z,953.6
2016-06-05T01:39:44.930Z,953.5
2016-06-05T01:39:54.934Z,953.5
2016-06-05T01:40:04.919Z,953.5
2016-06-05T01:40:14.919Z,953.5
2016-06-05T01:40:24.919Z,953.5
2016-06-05T01:40:34.903Z,953.6
2016-06-05T01:40:44.919Z,953.5
2016-06-05T01:40:54.905Z,953.6
2016-06-05T01:41:04.905Z,953.6
2016-06-05T01:41:14.905Z,953.6
2016-06-05T01:41:24.764Z,953.6
2016-06-05T01:41:34.889Z,953.5
2016-06-05T01:41:44.889Z,953.6
2016-06-05T01:41:54.908Z,953.6
2016-06-05T01:42:04.892Z,953.6
2016-06-05T01:42:14.892Z,953.7
2016-06-05T01:42:25.299Z,953.6
2016-06-05T01:42:35.549Z,953.7
2016-06-05T01:42:44.924Z,953.6
2016-06-05T01:42:55.520Z,953.6
2016-06-05T01:43:06.645Z,953.7
2016-06-05T01:43:14.661Z,953.7
2016-06-05T01:43:25.708Z,953.6
2016-06-05T01:43:34.973Z,953.6
2016-06-05T01:43:44.739Z,953.7
2016-06-05T01:43:54.851Z,953.7
2016-06-05T01:44:04.883Z,953.7
2016-06-05T01:44:14.851Z,953.7
2016-06-05T01:44:24.867Z,953.7
2016-06-05T01:44:34.867Z,953.8
2016-06-05T01:44:44.867Z,953.7
2016-06-05T01:44:54.869Z,953.7
2016-06-05T01:45:04.885Z,953.7
2016-06-05T01:45:14.853Z,953.8
2016-06-05T01:45:24.853Z,953.7
2016-06-05T01:45:34.853Z,953.7
2016-06-05T01:45:44.838Z,953.7
2016-06-05T01:45:54.840Z,953.7
2016-06-05T01:46:04.840Z,953.8
2016-06-05T01:46:14.824Z,953.8
2016-06-05T01:46:24.840Z,953.7
2016-06-05T01:46:34.824Z,953.7
2016-06-05T01:46:44.840Z,953.7
2016-06-05T01:46:54.827Z,953.8
2016-06-05T01:47:04.702Z,953.8
2016-06-05T01:47:14.827Z,953.7
2016-06-05T01:47:24.827Z,953.8
2016-06-05T01:47:34.827Z,953.8
2016-06-05T01:47:44.812Z,953.8
2016-06-05T01:47:54.799Z,953.8
2016-06-05T01:48:04.830Z,953.8
2016-06-05T01:48:14.830Z,953.9
2016-06-05T01:48:24.658Z,953.8
2016-06-05T01:48:34.799Z,954
2016-06-05T01:48:44.815Z,953.8
2016-06-05T01:48:54.785Z,953.9
2016-06-05T01:49:04.801Z,953.8
2016-06-05T01:49:14.817Z,953.9
2016-06-05T01:49:24.785Z,954
2016-06-05T01:49:34.785Z,953.9
2016-06-05T01:49:44.785Z,953.9
2016-06-05T01:49:54.805Z,954
2016-06-05T01:50:04.805Z,953.9
2016-06-05T01:50:14.789Z,954
2016-06-05T01:50:24.774Z,953.9
2016-06-05T01:50:34.789Z,954
2016-06-05T01:50:44.774Z,954
2016-06-05T01:50:54.776Z,954.1
2016-06-05T01:51:04.791Z,954
2016-06-05T01:51:14.776Z,954
2016-06-05T01:51:24.760Z,954.1
2016-06-05T01:51:34.791Z,954
2016-06-05T01:51:44.760Z,954.1
2016-06-05T01:51:54.763Z,954.1
2016-06-05T01:52:04.747Z,954.1
2016-06-05T01:52:14.779Z,954.1
2016-06-05T01:52:24.763Z,954
2016-06-05T01:52:34.763Z,954.2
2016-06-05T01:52:44.763Z,954.1
2016-06-05T01:52:54.765Z,954.1
2016-06-05T01:53:04.734Z,954.1
2016-06-05T01:53:14.734Z,954.1
2016-06-05T01:53:24.749Z,954.2
2016-06-05T01:53:34.734Z,954.2
2016-06-05T01:53:44.734Z,954.2
2016-06-05T01:53:54.752Z,954.2
2016-06-05T01:54:04.581Z,954.2
2016-06-05T01:54:14.721Z,954.2
2016-06-05T01:54:24.721Z,954.3
2016-06-05T01:54:34.721Z,954.2
2016-06-05T01:54:44.737Z,954.2
2016-06-05T01:54:54.724Z,954.2
2016-06-05T01:55:04.724Z,954.3
2016-06-05T01:55:14.709Z,954.3
2016-06-05T01:55:24.709Z,954.3
2016-06-05T01:55:34.724Z,954.4
2016-06-05T01:55:44.740Z,954.3
2016-06-05T01:55:54.555Z,954.3
2016-06-05T01:56:04.712Z,954.3
2016-06-05T01:56:14.727Z,954.3
2016-06-05T01:56:24.712Z,954.4
2016-06-05T01:56:34.540Z,954.3
2016-06-05T01:56:44.540Z,954.4
2016-06-05T01:56:54.714Z,954.3
2016-06-05T01:57:04.714Z,954.3
2016-06-05T01:57:14.682Z,954.3
2016-06-05T01:57:24.682Z,954.3
2016-06-05T01:57:35.214Z,954.3
2016-06-05T01:57:45.245Z,954.3
2016-06-05T01:57:54.559Z,954.3
2016-06-05T01:58:05.059Z,954.3
2016-06-05T01:58:15.747Z,954.4
2016-06-05T01:58:24.841Z,954.4
2016-06-05T01:58:35.231Z,954.4
2016-06-05T01:58:45.794Z,954.4
2016-06-05T01:58:54.797Z,954.3
2016-06-05T01:59:04.687Z,954.4
2016-06-05T01:59:14.656Z,954.4
2016-06-05T01:59:24.687Z,954.3
2016-06-05T01:59:34.656Z,954.3
2016-06-05T01:59:44.656Z,954.4
2016-06-05T01:59:54.660Z,954.4
2016-06-05T02:00:04.660Z,954.5
2016-06-05T02:00:14.504Z,954.5
2016-06-05T02:00:24.644Z,954.4
2016-06-05T02:00:34.644Z,954.4
2016-06-05T02:00:44.660Z,954.4
2016-06-05T02:00:54.646Z,954.4
2016-06-05T02:01:04.631Z,954.4
2016-06-05T02:01:14.646Z,954.4
2016-06-05T02:01:24.646Z,954.5
2016-06-05T02:01:34.631Z,954.5
2016-06-05T02:01:44.646Z,954.4
2016-06-05T02:01:54.618Z,954.5
2016-06-05T02:02:04.618Z,954.4
2016-06-05T02:02:14.634Z,954.4
2016-06-05T02:02:24.618Z,954.5
2016-06-05T02:02:34.618Z,954.4
2016-06-05T02:02:44.603Z,954.6
2016-06-05T02:02:54.481Z,954.5
2016-06-05T02:03:04.621Z,954.5
2016-06-05T02:03:14.621Z,954.4
2016-06-05T02:03:24.606Z,954.5
2016-06-05T02:03:34.621Z,954.5
2016-06-05T02:03:44.606Z,954.5
2016-06-05T02:03:54.608Z,954.6
2016-06-05T02:04:04.608Z,954.6
2016-06-05T02:04:14.592Z,954.5
2016-06-05T02:04:24.623Z,954.4
2016-06-05T02:04:34.592Z,954.7
2016-06-05T02:04:44.576Z,954.6
2016-06-05T02:04:54.611Z,954.6
2016-06-05T02:05:04.579Z,954.6
2016-06-05T02:05:14.595Z,954.5
2016-06-05T02:05:24.579Z,954.7
2016-06-05T02:05:34.579Z,954.6
2016-06-05T02:05:44.579Z,954.7
2016-06-05T02:05:54.581Z,954.6
2016-06-05T02:06:04.581Z,954.7
2016-06-05T02:06:14.425Z,954.7
2016-06-05T02:06:24.566Z,954.7
2016-06-05T02:06:34.425Z,954.7
2016-06-05T02:06:44.581Z,954.7
2016-06-05T02:06:54.553Z,954.7
2016-06-05T02:07:04.569Z,954.6
2016-06-05T02:07:14.569Z,954.6
2016-06-05T02:07:24.553Z,954.7
2016-06-05T02:07:34.397Z,954.7
2016-06-05T02:07:44.553Z,954.7
2016-06-05T02:07:54.572Z,954.7
2016-06-05T02:08:04.540Z,954.7
2016-06-05T02:08:14.540Z,954.8
2016-06-05T02:08:24.540Z,954.7
2016-06-05T02:08:34.540Z,954.7
2016-06-05T02:08:44.540Z,954.7
2016-06-05T02:08:54.527Z,954.7
2016-06-05T02:09:04.542Z,954.7
2016-06-05T02:09:14.527Z,954.7
2016-06-05T02:09:24.527Z,954.7
2016-06-05T02:09:34.542Z,954.8
2016-06-05T02:09:44.511Z,954.7
2016-06-05T02:09:54.514Z,954.7
2016-06-05T02:10:04.514Z,954.7
2016-06-05T02:10:14.374Z,954.7